Time;durP1;ratioP1;P1;durP2;ratioP2;P2;SDS_P1;SDS_P2;PMS_P1;PMS_P2;Temp;Humidity;BMP_temperature;BMP_pressure;BME280_temperature;BME280_humidity;BME280_pressure;Samples;Min_cycle;Max_cycle;Signal;HPM_P1;HPM_P2
2022/09/26 00:01:33;;;;;;;7.28;2.40;;;18.40;78.00;;;;;;5026846;28;20583;-71
2022/09/26 00:04:21;;;;;;;5.38;1.85;;;18.30;78.00;;;;;;5024510;28;20018;-68
2022/09/26 00:07:20;;;;;;;7.55;1.77;;;18.40;78.20;;;;;;5038368;28;20037;-70
2022/09/26 00:09:47;;;;;;;2.15;1.65;;;18.40;78.10;;;;;;5014601;28;20046;-72
2022/09/26 00:12:29;;;;;;;3.20;1.50;;;18.40;78.00;;;;;;5029129;28;20572;-69
2022/09/26 00:14:58;;;;;;;5.25;1.92;;;18.40;78.10;;;;;;5014646;28;20034;-72
2022/09/26 00:17:31;;;;;;;2.35;1.08;;;18.40;78.00;;;;;;5029511;28;20069;-67
2022/09/26 00:19:58;;;;;;;2.88;1.60;;;18.40;78.10;;;;;;5010949;28;20035;-72
2022/09/26 00:22:24;;;;;;;3.92;1.70;;;18.40;78.00;;;;;;5027712;28;20021;-70
2022/09/26 00:24:52;;;;;;;6.35;2.67;;;18.40;77.90;;;;;;5027447;28;20733;-77
2022/09/26 00:27:19;;;;;;;4.55;2.03;;;18.40;78.00;;;;;;5027778;28;20036;-69
2022/09/26 00:29:46;;;;;;;4.88;1.60;;;18.40;78.00;;;;;;5031608;28;20028;-72
2022/09/26 00:32:12;;;;;;;2.58;1.70;;;18.40;78.00;;;;;;5027146;28;20967;-76
2022/09/26 00:34:39;;;;;;;5.05;1.58;;;18.40;77.90;;;;;;5028736;28;20025;-70
2022/09/26 00:37:05;;;;;;;4.25;1.80;;;18.40;77.80;;;;;;5013289;28;20354;-72
2022/09/26 00:39:32;;;;;;;7.55;2.03;;;18.40;77.70;;;;;;5023154;28;20026;-82
2022/09/26 00:41:59;;;;;;;4.47;1.63;;;18.40;77.60;;;;;;5022541;28;20026;-81
2022/09/26 00:44:55;;;;;;;3.50;1.63;;;18.30;77.50;;;;;;5026214;28;20017;-75
2022/09/26 00:47:32;;;;;;;10.15;2.30;;;18.30;77.40;;;;;;5025298;28;20517;-76
2022/09/26 00:50:07;;;;;;;3.65;1.83;;;18.40;77.50;;;;;;5022553;28;20112;-68
2022/09/26 00:52:40;;;;;;;4.13;1.52;;;18.30;77.60;;;;;;5024142;28;20033;-75
2022/09/26 00:55:10;;;;;;;1.83;1.15;;;18.30;77.70;;;;;;5035724;28;20104;-70
2022/09/26 00:57:52;;;;;;;7.28;1.50;;;18.30;77.90;;;;;;5026736;28;20472;-77
2022/09/26 01:00:22;;;;;;;4.75;1.70;;;18.30;78.10;;;;;;5021097;28;20389;-78
2022/09/26 01:02:51;;;;;;;5.40;1.50;;;18.30;78.30;;;;;;5029170;28;20131;-75
2022/09/26 01:05:21;;;;;;;5.13;2.17;;;18.30;78.50;;;;;;5024095;28;20473;-68
2022/09/26 01:07:49;;;;;;;5.38;2.00;;;18.30;78.70;;;;;;5009093;28;20128;-73
2022/09/26 01:10:15;;;;;;;3.70;1.83;;;18.30;78.70;;;;;;5035143;28;20495;-67
2022/09/26 01:12:42;;;;;;;7.13;2.17;;;18.30;78.90;;;;;;5026647;28;20017;-71
2022/09/26 01:15:10;;;;;;;8.70;2.33;;;18.20;79.00;;;;;;5025694;28;20103;-79
2022/09/26 01:17:39;;;;;;;3.88;1.65;;;18.30;79.50;;;;;;5030738;28;20037;-78
2022/09/26 01:20:24;;;;;;;8.10;2.38;;;18.30;79.70;;;;;;5030190;28;20017;-71
2022/09/26 01:23:26;;;;;;;4.90;1.90;;;18.30;80.00;;;;;;5020930;28;20018;-71
2022/09/26 01:26:04;;;;;;;4.70;3.00;;;18.20;80.20;;;;;;5024262;28;20045;-67
2022/09/26 01:29:09;;;;;;;8.10;2.70;;;18.20;80.40;;;;;;5022758;28;20458;-68
2022/09/26 01:34:56;;;;;;;3.33;1.83;;;18.20;80.80;;;;;;5019876;28;20676;-70
2022/09/26 01:37:49;;;;;;;10.20;2.13;;;18.20;81.00;;;;;;5026121;28;20520;-69
2022/09/26 01:40:23;;;;;;;8.85;1.95;;;18.20;81.30;;;;;;5031578;28;20135;-72
2022/09/26 01:43:18;;;;;;;5.40;1.98;;;18.20;81.60;;;;;;5017205;28;20025;-69
2022/09/26 01:46:05;;;;;;;10.67;1.67;;;18.20;81.70;;;;;;5022153;28;20024;-77
2022/09/26 01:48:43;;;;;;;9.80;1.38;;;18.20;81.80;;;;;;5038754;28;20084;-73
2022/09/26 01:51:52;;;;;;;6.13;1.92;;;18.20;82.00;;;;;;5023311;28;20098;-72
2022/09/26 01:54:42;;;;;;;3.78;2.15;;;18.20;82.70;;;;;;5022577;28;20048;-69
2022/09/26 01:57:15;;;;;;;2.75;1.20;;;18.20;83.10;;;;;;5029588;28;20032;-71
2022/09/26 01:59:53;;;;;;;7.10;1.20;;;18.20;83.10;;;;;;5020158;28;20021;-68
2022/09/26 02:02:35;;;;;;;4.38;1.55;;;18.30;83.10;;;;;;5020837;28;20049;-70
2022/09/26 02:05:27;;;;;;;8.65;2.28;;;18.20;83.20;;;;;;5023032;28;20946;-70
2022/09/26 02:08:15;;;;;;;13.27;2.00;;;18.20;83.10;;;;;;5023675;28;20377;-67
2022/09/26 02:11:00;;;;;;;3.47;1.67;;;18.30;83.50;;;;;;5028428;28;20017;-70
2022/09/26 02:13:54;;;;;;;5.60;1.42;;;18.20;83.90;;;;;;5004778;28;20033;-69
2022/09/26 02:16:28;;;;;;;3.78;2.40;;;18.20;83.70;;;;;;5016324;28;20038;-68
2022/09/26 02:19:01;;;;;;;2.25;1.42;;;18.20;83.30;;;;;;5024647;28;20487;-70
2022/09/26 02:21:28;;;;;;;6.60;1.83;;;18.20;83.20;;;;;;5006842;28;20053;-67
2022/09/26 02:23:55;;;;;;;4.47;2.05;;;18.20;83.10;;;;;;5042274;28;20578;-69
2022/09/26 02:26:23;;;;;;;6.78;1.80;;;18.10;82.80;;;;;;5024059;28;20701;-67
2022/09/26 02:28:49;;;;;;;3.47;1.67;;;18.20;83.00;;;;;;5024168;28;20563;-67
2022/09/26 02:31:22;;;;;;;3.90;1.80;;;18.10;83.00;;;;;;5022023;28;20037;-67
2022/09/26 02:33:50;;;;;;;3.08;1.85;;;18.10;83.10;;;;;;5003212;28;20021;-69
2022/09/26 02:36:19;;;;;;;6.13;1.85;;;18.10;83.60;;;;;;5021232;28;20076;-72
2022/09/26 02:38:46;;;;;;;4.63;1.70;;;18.10;84.10;;;;;;5023419;28;20033;-90
2022/09/26 02:41:32;;;;;;;3.92;2.25;;;18.10;84.30;;;;;;5028128;28;20108;-81
2022/09/26 02:44:04;;;;;;;3.65;1.92;;;18.10;84.50;;;;;;5030714;28;20018;-79
2022/09/26 02:47:05;;;;;;;6.20;1.80;;;18.10;84.50;;;;;;5025979;28;20033;-77
2022/09/26 02:49:53;;;;;;;4.75;1.77;;;18.10;84.60;;;;;;5024019;28;20033;-79
2022/09/26 02:52:32;;;;;;;10.52;3.35;;;18.10;84.60;;;;;;5017834;28;20049;-77
2022/09/26 02:55:21;;;;;;;13.82;2.53;;;18.10;84.40;;;;;;5021760;28;20077;-81
2022/09/26 02:58:41;;;;;;;5.38;2.03;;;18.10;84.70;;;;;;5015382;28;20042;-76
2022/09/26 03:01:16;;;;;;;5.82;1.90;;;18.10;85.10;;;;;;5013315;28;20037;-80
2022/09/26 03:03:58;;;;;;;2.85;1.73;;;18.10;85.20;;;;;;5022927;28;20026;-67
2022/09/26 03:06:58;;;;;;;2.33;1.55;;;18.20;84.90;;;;;;5008660;28;20034;-65
2022/09/26 03:09:26;;;;;;;9.88;3.92;;;18.10;84.60;;;;;;5007532;28;20048;-68
2022/09/26 03:12:13;;;;;;;10.80;3.42;;;18.10;84.50;;;;;;5010386;28;20064;-67
2022/09/26 03:15:08;;;;;;;10.43;3.13;;;18.10;84.70;;;;;;5021342;28;20033;-66
2022/09/26 03:17:49;;;;;;;5.70;3.83;;;18.10;84.90;;;;;;5030166;28;20046;-66
2022/09/26 03:20:28;;;;;;;7.32;2.40;;;18.20;85.10;;;;;;5006355;28;20030;-71
2022/09/26 03:22:55;;;;;;;3.53;2.08;;;18.10;85.10;;;;;;5033065;28;20058;-77
2022/09/26 03:25:25;;;;;;;9.27;3.17;;;18.20;85.10;;;;;;5030676;28;20056;-68
2022/09/26 03:27:53;;;;;;;5.97;1.95;;;18.10;85.10;;;;;;5027314;28;20060;-85
2022/09/26 03:30:21;;;;;;;16.30;7.78;;;18.10;84.90;;;;;;5028655;28;20042;-81
2022/09/26 03:32:49;;;;;;;12.45;7.68;;;18.20;85.00;;;;;;5020782;28;20076;-85
2022/09/26 03:35:16;;;;;;;15.07;6.47;;;18.20;85.20;;;;;;5036864;28;20784;-76
2022/09/26 03:37:42;;;;;;;8.73;3.45;;;18.20;85.30;;;;;;5023704;28;20112;-77
2022/09/26 03:40:11;;;;;;;4.88;2.75;;;18.20;85.20;;;;;;5028156;28;20067;-81
2022/09/26 03:42:37;;;;;;;7.05;2.38;;;18.20;84.90;;;;;;5031859;28;20112;-84
2022/09/26 03:45:07;;;;;;;4.20;2.42;;;18.20;84.70;;;;;;5027239;28;20014;-77
2022/09/26 03:47:34;;;;;;;5.80;2.25;;;18.20;84.50;;;;;;5033730;28;20029;-79
2022/09/26 03:50:01;;;;;;;7.43;2.88;;;18.10;84.30;;;;;;5033429;28;20036;-75
2022/09/26 03:52:28;;;;;;;6.40;4.07;;;18.10;84.70;;;;;;5033578;28;20120;-86
2022/09/26 03:54:54;;;;;;;7.95;3.03;;;18.10;85.20;;;;;;5029717;28;20501;-71
2022/09/26 03:57:21;;;;;;;4.18;2.00;;;18.10;85.20;;;;;;5028837;28;20140;-70
2022/09/26 03:59:48;;;;;;;3.65;1.77;;;18.10;85.20;;;;;;5035978;28;20018;-83
2022/09/26 04:02:15;;;;;;;3.83;1.30;;;18.10;85.10;;;;;;5031780;28;20509;-71
2022/09/26 06:43:54;;;;;;;3.83;1.52;;;17.40;90.50;;;;;;5028596;28;21060;-66
2022/09/26 06:46:20;;;;;;;6.22;1.40;;;17.80;90.80;;;;;;5015433;28;20028;-67
2022/09/26 06:48:47;;;;;;;4.00;1.60;;;17.80;90.70;;;;;;5017536;28;20093;-67
2022/09/26 06:51:14;;;;;;;4.80;1.42;;;17.80;90.60;;;;;;5017201;28;20072;-66
2022/09/26 06:53:41;;;;;;;5.63;1.20;;;17.90;90.60;;;;;;5012189;28;20109;-66
2022/09/26 06:56:08;;;;;;;4.15;1.50;;;18.00;90.50;;;;;;5016386;28;20089;-68
2022/09/26 06:58:34;;;;;;;6.80;1.45;;;18.00;90.50;;;;;;5009310;28;20029;-71
2022/09/26 07:01:01;;;;;;;2.22;2.05;;;18.00;90.40;;;;;;5017195;28;20053;-68
2022/09/26 07:03:28;;;;;;;5.95;1.73;;;18.10;90.30;;;;;;5015087;28;20056;-68
2022/09/26 07:05:55;;;;;;;4.13;1.60;;;18.10;90.30;;;;;;5015418;28;20030;-69
2022/09/26 07:08:22;;;;;;;3.25;1.20;;;18.10;90.30;;;;;;5009860;28;20076;-71
2022/09/26 07:10:49;;;;;;;2.58;1.13;;;18.20;90.30;;;;;;5014112;28;20017;-69
2022/09/26 07:13:15;;;;;;;5.95;1.40;;;18.20;90.30;;;;;;5009719;28;20030;-69
2022/09/26 07:15:46;;;;;;;7.65;1.17;;;18.20;90.20;;;;;;5010583;28;20135;-69
2022/09/26 07:18:13;;;;;;;3.80;1.88;;;18.20;90.20;;;;;;5009978;28;20396;-67
2022/09/26 07:20:41;;;;;;;2.60;1.05;;;18.20;90.10;;;;;;5010872;28;20022;-67
2022/09/26 07:23:09;;;;;;;2.67;1.08;;;18.30;90.10;;;;;;5015092;28;20113;-67
2022/09/26 07:25:38;;;;;;;7.70;1.45;;;18.30;90.10;;;;;;5012743;28;20108;-69
2022/09/26 07:28:07;;;;;;;4.07;2.00;;;18.30;90.20;;;;;;5009600;28;20048;-70
2022/09/26 07:30:34;;;;;;;7.28;1.25;;;18.30;90.20;;;;;;5011791;28;20037;-70
2022/09/26 07:33:02;;;;;;;14.90;1.80;;;18.30;90.30;;;;;;5013136;28;20177;-70
2022/09/26 07:35:34;;;;;;;4.18;1.13;;;18.40;90.30;;;;;;5013666;28;20062;-68
2022/09/26 07:38:01;;;;;;;17.50;1.85;;;18.40;90.40;;;;;;5012111;28;20121;-68
2022/09/26 07:40:28;;;;;;;6.13;1.90;;;18.40;90.50;;;;;;5014502;28;20393;-67
2022/09/26 07:42:59;;;;;;;7.40;1.60;;;18.40;90.60;;;;;;5021327;28;20049;-68
2022/09/26 07:51:10;;;;;;;9.35;1.70;;;18.50;90.50;;;;;;5018587;28;20100;-69
2022/09/26 07:53:39;;;;;;;2.33;0.85;;;18.50;90.40;;;;;;5021345;28;20129;-68
2022/09/26 07:56:09;;;;;;;6.45;2.65;;;18.60;90.30;;;;;;5024782;28;20072;-70
2022/09/26 07:58:38;;;;;;;6.70;1.33;;;18.60;90.20;;;;;;5022135;28;20026;-67
2022/09/26 08:01:10;;;;;;;7.45;1.23;;;18.60;90.10;;;;;;5017344;28;20022;-67
2022/09/26 08:03:41;;;;;;;3.28;0.82;;;18.60;90.00;;;;;;5019986;28;20464;-68
2022/09/26 08:06:08;;;;;;;7.70;1.02;;;18.70;89.60;;;;;;5021287;28;20021;-72
2022/09/26 08:08:35;;;;;;;3.03;0.98;;;18.70;89.30;;;;;;5019189;28;20025;-70
2022/09/26 08:11:04;;;;;;;8.40;1.63;;;18.70;88.90;;;;;;5016259;28;20092;-69
2022/09/26 08:13:32;;;;;;;3.70;1.85;;;18.70;88.70;;;;;;5022276;28;20096;-68
2022/09/26 08:16:04;;;;;;;15.70;2.67;;;18.70;88.60;;;;;;5021680;28;20025;-70
2022/09/26 08:18:33;;;;;;;6.70;3.25;;;18.70;88.20;;;;;;5019424;28;20032;-70
2022/09/26 08:21:08;;;;;;;10.25;3.95;;;18.70;88.10;;;;;;5023912;28;20065;-68
2022/09/26 08:23:35;;;;;;;13.43;2.58;;;18.70;88.40;;;;;;5018238;28;20047;-71
2022/09/26 08:26:07;;;;;;;11.80;1.95;;;18.70;88.20;;;;;;5020443;28;20415;-71
2022/09/26 08:28:36;;;;;;;7.07;1.67;;;18.70;87.80;;;;;;5019740;28;20084;-71
2022/09/26 08:31:03;;;;;;;7.03;1.55;;;18.80;87.40;;;;;;5019056;28;20034;-70
2022/09/26 08:33:34;;;;;;;6.78;1.38;;;18.80;87.10;;;;;;5017704;28;20030;-69
2022/09/26 08:36:08;;;;;;;18.63;2.08;;;18.80;86.90;;;;;;5022477;28;20022;-70
2022/09/26 08:38:36;;;;;;;4.20;1.50;;;18.80;86.50;;;;;;5019286;28;20033;-71
2022/09/26 08:41:03;;;;;;;7.90;2.45;;;18.80;86.30;;;;;;5021826;28;20044;-71
2022/09/26 08:44:01;;;;;;;3.33;1.45;;;18.80;86.20;;;;;;5014274;28;20404;-68
2022/09/26 08:46:59;;;;;;;6.40;1.90;;;18.80;86.10;;;;;;5018814;28;20033;-72
2022/09/26 08:50:00;;;;;;;2.95;1.15;;;18.80;86.00;;;;;;5016641;28;20091;-69
2022/09/26 08:52:49;;;;;;;7.68;2.15;;;18.80;85.70;;;;;;5016688;28;20049;-69
2022/09/26 08:55:20;;;;;;;6.32;1.65;;;18.80;85.10;;;;;;5017358;28;20030;-68
2022/09/26 08:57:53;;;;;;;16.45;2.45;;;18.80;84.60;;;;;;5019312;28;20037;-70
2022/09/26 09:00:24;;;;;;;7.78;2.47;;;18.80;84.10;;;;;;5015420;28;20046;-68
2022/09/26 09:02:57;;;;;;;2.17;1.40;;;18.80;83.70;;;;;;5014766;28;20022;-68
2022/09/26 09:05:34;;;;;;;4.22;1.15;;;18.80;83.40;;;;;;5011752;28;20025;-69
2022/09/26 09:08:06;;;;;;;4.30;1.35;;;18.80;83.40;;;;;;5024339;28;20033;-69
2022/09/26 09:10:51;;;;;;;3.97;2.25;;;18.80;83.40;;;;;;5024849;28;20554;-70
2022/09/26 09:13:51;;;;;;;14.55;3.88;;;18.80;83.30;;;;;;5019700;28;20048;-68
2022/09/26 09:16:41;;;;;;;10.75;1.60;;;18.80;83.20;;;;;;5015741;28;20060;-68
2022/09/26 09:19:25;;;;;;;6.05;2.00;;;18.90;83.00;;;;;;5020094;28;20516;-68
2022/09/26 09:22:10;;;;;;;10.10;1.53;;;18.90;82.60;;;;;;5020684;28;20509;-70
2022/09/26 09:25:15;;;;;;;4.68;1.42;;;18.90;82.20;;;;;;5014842;28;20032;-69
2022/09/26 09:28:22;;;;;;;3.88;1.30;;;18.90;81.80;;;;;;5020105;28;20068;-70
2022/09/26 09:30:57;;;;;;;6.38;2.20;;;18.90;81.50;;;;;;5014463;28;20060;-69
2022/09/26 09:33:37;;;;;;;2.95;1.08;;;19.00;81.00;;;;;;5016279;28;20515;-68
2022/09/26 09:36:13;;;;;;;5.15;1.95;;;19.10;80.20;;;;;;5022504;28;20030;-71
2022/09/26 09:38:47;;;;;;;15.68;2.15;;;19.10;79.50;;;;;;5024282;28;20033;-69
2022/09/26 09:41:28;;;;;;;6.25;1.80;;;19.20;79.40;;;;;;5019671;28;20365;-68
2022/09/26 09:44:02;;;;;;;3.55;1.88;;;19.30;79.00;;;;;;5015444;28;20041;-71
2022/09/26 09:46:35;;;;;;;7.70;1.20;;;19.30;78.70;;;;;;5014504;28;20436;-71
2022/09/26 09:49:21;;;;;;;8.93;2.45;;;19.50;78.50;;;;;;5012651;28;20341;-70
2022/09/26 09:52:19;;;;;;;1.08;0.90;;;19.50;78.70;;;;;;5015248;28;20080;-69
2022/09/26 09:55:00;;;;;;;7.15;2.30;;;19.50;79.10;;;;;;5012588;28;20048;-68
2022/09/26 09:57:54;;;;;;;4.40;1.67;;;19.50;79.10;;;;;;5010086;28;20041;-67
2022/09/26 10:01:00;;;;;;;4.22;1.65;;;19.50;79.60;;;;;;5014061;28;20021;-69
2022/09/26 10:04:12;;;;;;;6.13;1.60;;;19.50;80.00;;;;;;5015230;28;20036;-69
2022/09/26 10:07:18;;;;;;;3.60;1.30;;;19.50;80.20;;;;;;4987073;28;20037;-69
2022/09/26 10:10:20;;;;;;;3.58;1.33;;;19.50;79.80;;;;;;5012368;28;20787;-69
2022/09/26 10:13:26;;;;;;;5.40;2.47;;;19.40;79.10;;;;;;4995629;28;20106;-69
2022/09/26 10:16:35;;;;;;;8.40;1.63;;;19.40;78.20;;;;;;5011874;28;20053;-68
2022/09/26 10:19:44;;;;;;;4.40;1.33;;;19.40;77.50;;;;;;5010574;28;20143;-69
2022/09/26 10:22:53;;;;;;;2.50;1.52;;;19.40;77.40;;;;;;5007350;28;20115;-68
2022/09/26 10:26:02;;;;;;;17.17;2.28;;;19.50;77.50;;;;;;5015337;28;20037;-69
2022/09/26 10:29:26;;;;;;;8.70;1.30;;;19.50;77.50;;;;;;5012031;28;20485;-67
2022/09/26 10:32:35;;;;;;;7.43;0.98;;;19.40;76.80;;;;;;5020582;28;20045;-68
2022/09/26 10:35:42;;;;;;;10.52;2.33;;;19.40;76.50;;;;;;5016035;28;20018;-67
2022/09/26 10:42:21;;;;;;;7.78;2.00;;;19.40;76.80;;;;;;5013902;28;20231;-68
2022/09/26 10:45:34;;;;;;;2.85;2.10;;;19.30;77.50;;;;;;5020514;28;20040;-68
2022/09/26 10:48:46;;;;;;;16.10;3.15;;;19.30;77.70;;;;;;5017155;28;20464;-68
2022/09/26 10:52:01;;;;;;;6.90;1.15;;;19.40;77.90;;;;;;5009826;28;20049;-68
2022/09/26 10:55:08;;;;;;;3.38;1.45;;;19.40;76.80;;;;;;5015506;28;20121;-68
2022/09/26 10:58:15;;;;;;;4.82;1.10;;;19.30;76.30;;;;;;5014091;28;20079;-67
2022/09/26 11:01:28;;;;;;;6.35;1.23;;;19.30;76.40;;;;;;5017894;28;20072;-67
2022/09/26 11:05:55;;;;;;;4.32;1.20;;;19.40;76.90;;;;;;5020768;28;20048;-67
2022/09/26 11:07:48;;;;;;;3.95;1.05;;;19.40;77.50;;;;;;5013976;28;20040;-68
2022/09/26 11:10:54;;;;;;;4.38;1.00;;;19.50;77.90;;;;;;5015281;28;20026;-69
2022/09/26 11:14:08;;;;;;;6.05;0.93;;;19.40;78.20;;;;;;5017275;28;20042;-67
2022/09/26 11:17:18;;;;;;;3.95;1.08;;;19.50;78.60;;;;;;5015743;28;20116;-68
2022/09/26 11:20:24;;;;;;;3.67;0.77;;;19.70;79.00;;;;;;5016577;28;20042;-67
2022/09/26 11:24:03;;;;;;;2.60;1.02;;;19.70;78.50;;;;;;5022750;28;20022;-70
2022/09/26 11:27:07;;;;;;;2.22;0.55;;;19.90;77.40;;;;;;5017390;28;20061;-68
2022/09/26 11:29:54;;;;;;;0.88;0.65;;;20.00;76.50;;;;;;5020910;28;20053;-68
2022/09/26 11:33:05;;;;;;;5.18;1.35;;;20.00;74.60;;;;;;5017462;28;20052;-68
2022/09/26 11:35:32;;;;;;;0.65;0.47;;;20.00;73.60;;;;;;5016100;28;20029;-69
2022/09/26 11:38:55;;;;;;;4.93;0.85;;;20.10;73.50;;;;;;5017886;28;20088;-68
2022/09/26 11:41:40;;;;;;;3.83;0.70;;;20.10;73.90;;;;;;4976715;28;20159;-68
2022/09/26 11:45:07;;;;;;;5.63;0.82;;;20.10;74.20;;;;;;4973217;28;20027;-68
2022/09/26 11:47:59;;;;;;;8.95;1.55;;;20.20;74.70;;;;;;5010760;28;20072;-68
2022/09/26 11:51:12;;;;;;;3.38;1.02;;;20.20;74.70;;;;;;5018028;28;20497;-69
2022/09/26 11:54:22;;;;;;;2.95;0.45;;;20.30;74.00;;;;;;5018146;28;20041;-69
2022/09/26 11:57:10;;;;;;;0.90;0.50;;;20.30;73.30;;;;;;5010584;28;20069;-68
2022/09/26 11:59:57;;;;;;;1.65;0.50;;;20.40;72.90;;;;;;5020754;28;20026;-67
2022/09/26 14:16:38;;;;;;;2.67;0.90;;;20.30;68.70;;;;;;5102696;27;20411;-71
2022/09/26 14:19:10;;;;;;;4.45;0.95;;;20.50;68.50;;;;;;5097495;28;20439;-70
2022/09/26 14:21:39;;;;;;;1.48;0.77;;;20.60;68.30;;;;;;5096592;28;20046;-71
2022/09/26 14:24:28;;;;;;;2.00;0.82;;;20.60;66.50;;;;;;5102120;28;20016;-69
2022/09/26 14:27:09;;;;;;;3.97;0.65;;;20.50;65.70;;;;;;5102602;28;20023;-68
2022/09/26 14:29:41;;;;;;;4.05;2.58;;;20.50;67.90;;;;;;5098734;28;20028;-69
2022/09/26 14:32:08;;;;;;;15.25;6.45;;;20.50;68.80;;;;;;5099974;28;20165;-68
2022/09/26 14:34:43;;;;;;;7.65;5.70;;;20.60;69.80;;;;;;5097407;28;20025;-74
2022/09/26 14:37:40;;;;;;;11.20;3.65;;;20.60;69.50;;;;;;5103865;28;20019;-67
2022/09/26 14:40:09;;;;;;;4.40;2.67;;;20.70;68.70;;;;;;5099898;28;20112;-69
2022/09/26 14:42:42;;;;;;;10.20;3.38;;;20.80;68.20;;;;;;5090298;28;20039;-68
2022/09/26 14:45:25;;;;;;;18.45;6.47;;;20.70;67.70;;;;;;5098576;28;20504;-68
2022/09/26 14:48:08;;;;;;;10.98;2.80;;;20.80;67.50;;;;;;5098579;28;20077;-70
2022/09/26 14:51:10;;;;;;;5.18;1.17;;;20.80;67.20;;;;;;5099121;28;20046;-69
2022/09/26 14:54:02;;;;;;;5.45;0.90;;;20.80;67.30;;;;;;5094952;28;20044;-69
2022/09/26 14:56:36;;;;;;;5.28;1.30;;;20.80;67.30;;;;;;5097039;28;20418;-70
2022/09/26 14:59:26;;;;;;;6.85;0.85;;;20.80;67.40;;;;;;5098588;28;20016;-69
2022/09/26 15:02:17;;;;;;;3.65;0.65;;;20.80;67.50;;;;;;5096481;28;20052;-69
2022/09/26 15:04:49;;;;;;;1.58;0.80;;;20.80;67.40;;;;;;5097887;28;20040;-67
2022/09/26 15:07:26;;;;;;;4.07;0.93;;;20.80;67.40;;;;;;5098082;28;20032;-67
2022/09/26 15:10:20;;;;;;;5.55;1.05;;;20.70;67.10;;;;;;5098764;28;20072;-69
2022/09/26 15:13:00;;;;;;;3.15;0.80;;;20.70;67.00;;;;;;5091027;28;20059;-67
2022/09/26 15:15:40;;;;;;;5.35;1.50;;;20.70;67.00;;;;;;5090226;28;20043;-69
2022/09/26 15:18:33;;;;;;;5.20;1.15;;;20.70;67.00;;;;;;5085764;28;20047;-68
2022/09/26 15:21:25;;;;;;;6.20;2.42;;;20.70;67.10;;;;;;5081716;28;20078;-69
2022/09/26 15:23:54;;;;;;;3.90;2.45;;;20.70;67.00;;;;;;5081368;28;20457;-70
2022/09/26 15:26:26;;;;;;;8.55;2.08;;;20.70;66.60;;;;;;5086610;28;20380;-68
2022/09/26 15:28:55;;;;;;;3.33;1.10;;;20.60;66.60;;;;;;5085604;28;20475;-68
2022/09/26 15:31:32;;;;;;;3.17;0.75;;;20.60;67.00;;;;;;5087287;28;20027;-68
2022/09/26 15:34:01;;;;;;;21.55;4.22;;;20.60;67.60;;;;;;5080918;28;20024;-68
2022/09/26 15:36:30;;;;;;;4.35;1.00;;;20.60;67.30;;;;;;5074667;28;20027;-71
2022/09/26 15:38:57;;;;;;;2.53;0.95;;;20.60;67.60;;;;;;5079711;28;20028;-71
2022/09/26 15:44:19;;;;;;;2.08;0.95;;;20.50;67.40;;;;;;5081195;28;20043;-71
2022/09/26 15:46:48;;;;;;;3.50;1.42;;;20.50;67.60;;;;;;5082844;28;20078;-74
2022/09/26 15:49:23;;;;;;;2.50;1.10;;;20.50;67.90;;;;;;5079717;28;20047;-69
2022/09/26 15:51:54;;;;;;;2.78;0.82;;;20.40;68.20;;;;;;5077469;28;20036;-70
2022/09/26 15:54:31;;;;;;;10.07;2.55;;;20.40;68.60;;;;;;5081905;28;20020;-71
2022/09/26 15:57:02;;;;;;;12.32;3.90;;;20.30;68.90;;;;;;5075570;28;20025;-72
2022/09/26 15:59:35;;;;;;;6.97;3.45;;;20.30;69.20;;;;;;5079679;28;20036;-71
2022/09/26 16:02:02;;;;;;;6.65;3.22;;;20.30;69.30;;;;;;5079368;28;20078;-72
2022/09/26 16:04:31;;;;;;;6.13;1.23;;;20.20;69.30;;;;;;5084616;28;20082;-72
2022/09/26 16:07:05;;;;;;;3.75;0.95;;;20.20;69.10;;;;;;5078703;28;20020;-72
2022/09/26 16:09:39;;;;;;;4.47;1.10;;;20.20;69.10;;;;;;5081414;28;20059;-72
2022/09/26 16:12:08;;;;;;;2.50;0.80;;;20.10;69.30;;;;;;5081424;28;20028;-73
2022/09/26 16:14:52;;;;;;;2.45;0.75;;;20.10;69.60;;;;;;5085212;28;20075;-72
2022/09/26 16:17:37;;;;;;;2.83;0.90;;;20.10;69.70;;;;;;5086032;28;20047;-72
2022/09/26 16:20:13;;;;;;;1.95;0.77;;;20.10;69.60;;;;;;5079761;28;20378;-72
2022/09/26 16:22:44;;;;;;;3.70;0.95;;;20.00;70.00;;;;;;5081732;28;20684;-74
2022/09/26 16:25:19;;;;;;;1.85;1.08;;;20.00;70.20;;;;;;5080048;28;20059;-75
2022/09/26 16:28:02;;;;;;;5.43;0.60;;;20.00;70.20;;;;;;5080013;28;20052;-72
2022/09/26 16:30:32;;;;;;;12.48;3.10;;;19.90;70.20;;;;;;5083459;28;20032;-74
2022/09/26 16:33:07;;;;;;;4.95;1.30;;;19.90;70.40;;;;;;5082421;28;20028;-77
2022/09/26 16:35:36;;;;;;;4.53;0.98;;;19.90;70.40;;;;;;5081149;28;20074;-77
2022/09/26 16:38:14;;;;;;;1.33;0.70;;;19.90;70.50;;;;;;5079787;28;20051;-75
2022/09/26 16:40:50;;;;;;;4.10;2.13;;;19.80;70.50;;;;;;5083257;28;20032;-73
2022/09/26 16:43:20;;;;;;;;;;;19.80;70.80;;;;;;5085085;28;20422;-73
2022/09/26 16:45:48;;;;;;;10.02;1.58;;;19.80;71.10;;;;;;5084533;28;20351;-72
2022/09/26 16:48:42;;;;;;;2.72;0.80;;;19.80;69.80;;;;;;5087000;28;20020;-72
2022/09/26 16:51:15;;;;;;;5.05;1.27;;;19.70;70.00;;;;;;5086733;28;20020;-71
2022/09/26 16:53:52;;;;;;;4.55;3.05;;;19.60;71.40;;;;;;5083966;28;20439;-71
2022/09/26 16:56:22;;;;;;;7.95;5.72;;;19.50;72.00;;;;;;5080178;28;20036;-74
2022/09/26 16:58:55;;;;;;;27.75;9.02;;;19.50;72.40;;;;;;5080294;28;20047;-72
2022/09/26 17:04:33;;;;;;;3.95;2.47;;;19.60;72.20;;;;;;5084734;28;20046;-72
2022/09/26 17:07:10;;;;;;;5.13;2.58;;;19.60;72.10;;;;;;5083795;28;20469;-72
2022/09/26 17:09:40;;;;;;;5.38;2.85;;;19.60;72.00;;;;;;5084611;28;20637;-71
2022/09/26 17:12:11;;;;;;;6.50;4.10;;;19.50;72.00;;;;;;5081563;28;20020;-72
2022/09/26 17:14:40;;;;;;;9.48;6.22;;;19.50;71.90;;;;;;5082753;28;20040;-72
2022/09/26 17:17:20;;;;;;;6.38;4.53;;;19.50;71.90;;;;;;5080575;28;20019;-72
2022/09/26 17:19:50;;;;;;;4.45;2.67;;;19.50;71.80;;;;;;5081830;28;20027;-72
2022/09/26 17:22:22;;;;;;;2.53;1.45;;;19.50;71.90;;;;;;5082787;28;20119;-71
2022/09/26 17:24:50;;;;;;;12.38;3.42;;;19.40;71.90;;;;;;5082496;28;20033;-71
2022/09/26 17:27:25;;;;;;;4.75;2.00;;;19.50;72.10;;;;;;5087280;28;20020;-72
2022/09/26 17:29:53;;;;;;;2.20;1.30;;;19.50;72.20;;;;;;5081140;28;20028;-72
2022/09/26 17:32:27;;;;;;;4.40;1.27;;;19.40;72.30;;;;;;5084102;28;20035;-72
2022/09/26 17:34:58;;;;;;;2.22;1.10;;;19.40;72.30;;;;;;5082628;28;20103;-75
2022/09/26 17:37:29;;;;;;;2.10;1.17;;;19.40;72.40;;;;;;5082939;28;20658;-75
2022/09/26 17:40:05;;;;;;;1.25;1.02;;;19.40;72.50;;;;;;5084257;28;20103;-73
2022/09/26 17:42:32;;;;;;;1.50;0.95;;;19.40;72.70;;;;;;5079032;28;20077;-73
2022/09/26 17:44:59;;;;;;;5.07;1.60;;;19.40;72.80;;;;;;5080373;28;20560;-71
2022/09/26 17:47:25;;;;;;;5.28;2.42;;;19.40;73.00;;;;;;5076794;28;20028;-72
2022/09/26 17:49:55;;;;;;;20.33;8.27;;;19.30;73.60;;;;;;5079257;28;20535;-72
2022/09/26 17:52:31;;;;;;;16.45;11.13;;;19.30;74.00;;;;;;5083371;28;20082;-72
2022/09/26 17:55:04;;;;;;;26.15;20.17;;;19.30;74.40;;;;;;5101762;28;20475;-71
2022/09/26 17:57:33;;;;;;;25.77;21.52;;;19.30;74.60;;;;;;5084283;28;20021;-72
2022/09/26 18:00:07;;;;;;;20.45;16.48;;;19.30;74.80;;;;;;5081331;28;20016;-73
2022/09/26 18:02:43;;;;;;;14.93;11.52;;;19.30;74.80;;;;;;5080939;28;20356;-73
2022/09/26 18:05:28;;;;;;;10.95;6.80;;;19.30;74.90;;;;;;5079872;28;20037;-72
2022/09/26 18:08:07;;;;;;;5.95;4.40;;;19.30;75.00;;;;;;5086692;28;20016;-72
2022/09/26 18:10:38;;;;;;;6.18;2.88;;;19.30;75.00;;;;;;5082542;28;20059;-72
2022/09/26 18:13:07;;;;;;;2.38;1.60;;;19.30;75.10;;;;;;5082151;28;20047;-72
2022/09/26 18:15:34;;;;;;;9.18;5.35;;;19.30;75.20;;;;;;5082961;28;20051;-73
2022/09/26 18:18:00;;;;;;;15.43;10.45;;;19.30;75.20;;;;;;5080421;28;20051;-72
2022/09/26 18:20:37;;;;;;;11.75;10.55;;;19.30;75.30;;;;;;5087933;28;20094;-73
2022/09/26 18:23:14;;;;;;;13.15;9.77;;;19.30;75.40;;;;;;5085447;28;20497;-73
2022/09/26 18:25:46;;;;;;;15.70;11.52;;;19.30;75.30;;;;;;5077847;28;20040;-73
2022/09/26 18:28:15;;;;;;;13.75;9.40;;;19.20;75.20;;;;;;5084588;28;20022;-72
2022/09/26 18:30:46;;;;;;;8.80;5.55;;;19.20;75.20;;;;;;5083732;28;20050;-72
2022/09/26 18:33:14;;;;;;;24.35;4.10;;;19.20;75.40;;;;;;5078768;28;20032;-72
2022/09/26 18:35:41;;;;;;;11.85;3.20;;;19.20;75.80;;;;;;5081989;28;20033;-72
2022/09/26 18:38:08;;;;;;;23.73;3.85;;;19.20;75.80;;;;;;5080450;28;20470;-73
2022/09/26 18:40:48;;;;;;;3.35;1.42;;;19.20;75.70;;;;;;5083320;28;20180;-72
2022/09/26 18:43:21;;;;;;;2.75;1.23;;;19.20;75.60;;;;;;5081758;28;20036;-72
2022/09/26 18:45:49;;;;;;;4.07;1.20;;;19.20;75.50;;;;;;5078243;28;20036;-72
2022/09/26 18:48:28;;;;;;;5.18;1.30;;;19.10;75.30;;;;;;5076990;28;20063;-73
2022/09/26 18:50:56;;;;;;;4.07;1.60;;;19.10;75.40;;;;;;5080168;28;20028;-72
2022/09/26 18:53:28;;;;;;;4.57;1.10;;;19.10;75.50;;;;;;5080438;28;20383;-71
2022/09/26 18:58:40;;;;;;;12.73;9.05;;;19.10;75.40;;;;;;5079741;28;20039;-73
2022/09/26 19:01:15;;;;;;;23.63;17.00;;;19.10;75.40;;;;;;5080843;28;20028;-73